sensor_id;sensor_type;location;lat;lon;timestamp;pressure;altitude;pressure_sealevel;temperature;humidity
41515;BME280;27247;48.020;16.720;2022-11-15T00:00:11;100230.34;;;5.97;100.00
41515;BME280;27247;48.020;16.720;2022-11-15T00:04:21;100222.81;;;5.92;100.00
41515;BME280;27247;48.020;16.720;2022-11-15T00:12:51;100218.75;;;5.98;100.00
41515;BME280;27247;48.020;16.720;2022-11-15T00:17:01;100216.25;;;5.96;100.00
41515;BME280;27247;48.020;16.720;2022-11-15T00:21:12;100222.94;;;5.91;100.00
41515;BME280;27247;48.020;16.720;2022-11-15T00:25:23;100219.44;;;5.90;100.00
41515;BME280;27247;48.020;16.720;2022-11-15T00:29:34;100213.88;;;5.93;100.00
41515;BME280;27247;48.020;16.720;2022-11-15T00:33:44;100211.34;;;5.92;100.00
41515;BME280;27247;48.020;16.720;2022-11-15T00:37:55;100215.22;;;5.88;100.00
41515;BME280;27247;48.020;16.720;2022-11-15T00:42:05;100185.50;;;5.84;100.00
41515;BME280;27247;48.020;16.720;2022-11-15T00:46:16;100185.94;;;5.89;100.00
41515;BME280;27247;48.020;16.720;2022-11-15T00:50:26;100174.19;;;5.82;100.00
41515;BME280;27247;48.020;16.720;2022-11-15T00:54:36;100172.34;;;5.73;100.00
41515;BME280;27247;48.020;16.720;2022-11-15T00:58:47;100166.91;;;5.74;100.00
41515;BME280;27247;48.020;16.720;2022-11-15T01:02:57;100178.63;;;5.72;100.00
41515;BME280;27247;48.020;16.720;2022-11-15T01:07:07;100171.81;;;5.79;100.00
41515;BME280;27247;48.020;16.720;2022-11-15T01:11:18;100171.22;;;5.75;100.00
41515;BME280;27247;48.020;16.720;2022-11-15T01:15:28;100169.97;;;5.70;100.00
41515;BME280;27247;48.020;16.720;2022-11-15T01:19:38;100164.97;;;5.76;100.00
41515;BME280;27247;48.020;16.720;2022-11-15T01:23:53;100154.75;;;5.72;100.00
41515;BME280;27247;48.020;16.720;2022-11-15T01:28:03;100150.44;;;5.71;100.00
41515;BME280;27247;48.020;16.720;2022-11-15T01:32:14;100158.66;;;5.68;100.00
41515;BME280;27247;48.020;16.720;2022-11-15T01:36:24;100154.34;;;5.67;100.00
41515;BME280;27247;48.020;16.720;2022-11-15T01:40:34;100147.22;;;5.67;100.00
41515;BME280;27247;48.020;16.720;2022-11-15T01:44:51;100138.44;;;5.67;100.00
41515;BME280;27247;48.020;16.720;2022-11-15T01:49:11;100133.41;;;5.73;100.00
41515;BME280;27247;48.020;16.720;2022-11-15T01:53:24;100130.19;;;5.70;100.00
41515;BME280;27247;48.020;16.720;2022-11-15T01:57:37;100125.47;;;5.73;100.00
41515;BME280;27247;48.020;16.720;2022-11-15T02:01:48;100135.91;;;5.65;100.00
41515;BME280;27247;48.020;16.720;2022-11-15T02:05:59;100120.56;;;5.59;100.00
41515;BME280;27247;48.020;16.720;2022-11-15T02:10:17;100131.88;;;5.71;100.00
41515;BME280;27247;48.020;16.720;2022-11-15T02:14:29;100130.59;;;5.65;100.00
41515;BME280;27247;48.020;16.720;2022-11-15T02:19:08;100119.44;;;5.62;100.00
41515;BME280;27247;48.020;16.720;2022-11-15T02:28:06;100114.69;;;5.65;100.00
41515;BME280;27247;48.020;16.720;2022-11-15T02:32:28;100119.31;;;5.63;100.00
41515;BME280;27247;48.020;16.720;2022-11-15T02:36:49;100103.81;;;5.68;100.00
41515;BME280;27247;48.020;16.720;2022-11-15T02:41:08;100113.72;;;5.66;100.00
41515;BME280;27247;48.020;16.720;2022-11-15T02:45:27;100105.06;;;5.64;100.00
41515;BME280;27247;48.020;16.720;2022-11-15T02:49:41;100103.41;;;5.73;100.00
41515;BME280;27247;48.020;16.720;2022-11-15T02:53:52;100098.25;;;5.71;100.00
41515;BME280;27247;48.020;16.720;2022-11-15T03:03:20;100096.56;;;5.70;100.00
41515;BME280;27247;48.020;16.720;2022-11-15T03:12:18;100096.72;;;5.78;100.00
41515;BME280;27247;48.020;16.720;2022-11-15T03:16:40;100089.31;;;5.72;100.00
41515;BME280;27247;48.020;16.720;2022-11-15T03:20:54;100100.22;;;5.79;100.00
41515;BME280;27247;48.020;16.720;2022-11-15T03:25:08;100092.38;;;5.77;100.00
41515;BME280;27247;48.020;16.720;2022-11-15T03:29:24;100087.66;;;5.81;100.00
41515;BME280;27247;48.020;16.720;2022-11-15T03:33:35;100080.38;;;5.83;100.00
41515;BME280;27247;48.020;16.720;2022-11-15T03:37:49;100080.66;;;5.80;100.00
41515;BME280;27247;48.020;16.720;2022-11-15T03:46:31;100073.81;;;5.77;100.00
41515;BME280;27247;48.020;16.720;2022-11-15T03:50:43;100075.38;;;5.80;100.00
41515;BME280;27247;48.020;16.720;2022-11-15T03:54:56;100069.50;;;5.86;100.00
41515;BME280;27247;48.020;16.720;2022-11-15T03:59:06;100075.50;;;5.88;100.00
41515;BME280;27247;48.020;16.720;2022-11-15T04:03:17;100072.31;;;5.94;100.00
41515;BME280;27247;48.020;16.720;2022-11-15T04:07:27;100062.84;;;5.92;100.00
41515;BME280;27247;48.020;16.720;2022-11-15T04:11:37;100063.94;;;5.89;100.00
41515;BME280;27247;48.020;16.720;2022-11-15T04:15:48;100066.28;;;5.83;100.00
41515;BME280;27247;48.020;16.720;2022-11-15T04:19:58;100059.72;;;5.87;100.00
41515;BME280;27247;48.020;16.720;2022-11-15T04:24:27;100049.16;;;5.96;100.00
41515;BME280;27247;48.020;16.720;2022-11-15T04:28:37;100035.63;;;5.90;100.00
41515;BME280;27247;48.020;16.720;2022-11-15T04:33:06;100037.72;;;5.96;100.00
41515;BME280;27247;48.020;16.720;2022-11-15T04:37:17;100030.44;;;5.98;100.00
41515;BME280;27247;48.020;16.720;2022-11-15T04:41:27;100032.81;;;5.91;100.00
41515;BME280;27247;48.020;16.720;2022-11-15T04:45:39;100030.16;;;5.91;100.00
41515;BME280;27247;48.020;16.720;2022-11-15T04:49:49;100017.75;;;5.92;100.00
41515;BME280;27247;48.020;16.720;2022-11-15T04:53:59;100020.25;;;5.93;100.00
41515;BME280;27247;48.020;16.720;2022-11-15T04:58:10;100020.53;;;5.90;100.00
41515;BME280;27247;48.020;16.720;2022-11-15T05:02:20;100018.59;;;5.92;100.00
41515;BME280;27247;48.020;16.720;2022-11-15T05:06:31;100017.88;;;6.00;100.00
41515;BME280;27247;48.020;16.720;2022-11-15T05:10:41;100016.75;;;6.02;100.00
41515;BME280;27247;48.020;16.720;2022-11-15T05:14:51;100007.81;;;6.03;100.00
41515;BME280;27247;48.020;16.720;2022-11-15T05:19:04;99992.47;;;5.88;100.00
41515;BME280;27247;48.020;16.720;2022-11-15T05:23:15;99988.00;;;5.69;100.00
41515;BME280;27247;48.020;16.720;2022-11-15T05:27:25;99997.66;;;5.60;100.00
41515;BME280;27247;48.020;16.720;2022-11-15T05:31:39;99989.41;;;5.54;100.00
41515;BME280;27247;48.020;16.720;2022-11-15T05:35:55;99989.13;;;5.47;100.00
41515;BME280;27247;48.020;16.720;2022-11-15T05:40:09;99990.81;;;5.48;100.00
41515;BME280;27247;48.020;16.720;2022-11-15T05:44:21;99987.19;;;5.68;100.00
41515;BME280;27247;48.020;16.720;2022-11-15T05:48:34;99980.34;;;5.56;100.00
41515;BME280;27247;48.020;16.720;2022-11-15T05:52:46;99995.00;;;5.70;100.00
41515;BME280;27247;48.020;16.720;2022-11-15T05:56:57;99987.31;;;5.57;100.00
41515;BME280;27247;48.020;16.720;2022-11-15T06:01:08;99984.94;;;5.54;100.00
41515;BME280;27247;48.020;16.720;2022-11-15T06:05:18;99980.34;;;5.47;100.00
41515;BME280;27247;48.020;16.720;2022-11-15T06:09:29;99981.31;;;5.36;100.00
41515;BME280;27247;48.020;16.720;2022-11-15T06:13:39;99987.59;;;5.25;100.00
41515;BME280;27247;48.020;16.720;2022-11-15T06:17:49;99987.88;;;5.22;100.00
41515;BME280;27247;48.020;16.720;2022-11-15T06:22:00;99987.53;;;5.16;100.00
41515;BME280;27247;48.020;16.720;2022-11-15T06:26:10;100001.75;;;5.14;100.00
41515;BME280;27247;48.020;16.720;2022-11-15T06:30:21;100002.03;;;5.11;100.00
41515;BME280;27247;48.020;16.720;2022-11-15T06:34:31;100000.38;;;5.10;100.00
41515;BME280;27247;48.020;16.720;2022-11-15T06:38:43;100013.91;;;5.17;100.00
41515;BME280;27247;48.020;16.720;2022-11-15T06:43:00;100008.59;;;5.17;100.00
41515;BME280;27247;48.020;16.720;2022-11-15T06:47:10;100011.00;;;5.20;100.00
41515;BME280;27247;48.020;16.720;2022-11-15T06:51:21;100006.13;;;5.25;100.00
41515;BME280;27247;48.020;16.720;2022-11-15T06:55:31;100006.13;;;5.25;100.00
41515;BME280;27247;48.020;16.720;2022-11-15T06:59:41;100004.72;;;5.21;100.00
41515;BME280;27247;48.020;16.720;2022-11-15T07:03:52;100007.38;;;5.21;100.00
41515;BME280;27247;48.020;16.720;2022-11-15T07:08:02;100011.00;;;5.20;100.00
41515;BME280;27247;48.020;16.720;2022-11-15T07:12:13;100004.72;;;5.21;100.00
41515;BME280;27247;48.020;16.720;2022-11-15T07:16:23;100009.47;;;5.27;100.00
41515;BME280;27247;48.020;16.720;2022-11-15T07:20:33;100007.81;;;5.36;100.00
41515;BME280;27247;48.020;16.720;2022-11-15T07:24:44;100009.34;;;5.38;100.00
41515;BME280;27247;48.020;16.720;2022-11-15T07:28:54;100005.59;;;5.41;100.00
41515;BME280;27247;48.020;16.720;2022-11-15T07:33:04;100006.72;;;5.48;100.00
41515;BME280;27247;48.020;16.720;2022-11-15T07:37:15;99994.84;;;5.42;100.00
41515;BME280;27247;48.020;16.720;2022-11-15T07:41:27;100002.53;;;5.36;100.00
41515;BME280;27247;48.020;16.720;2022-11-15T07:45:44;100014.25;;;5.43;100.00
41515;BME280;27247;48.020;16.720;2022-11-15T07:49:55;100004.06;;;5.48;100.00
41515;BME280;27247;48.020;16.720;2022-11-15T07:54:05;99991.50;;;5.60;100.00
41515;BME280;27247;48.020;16.720;2022-11-15T07:58:15;100006.84;;;5.66;100.00
41515;BME280;27247;48.020;16.720;2022-11-15T08:02:26;99994.44;;;5.76;100.00
41515;BME280;27247;48.020;16.720;2022-11-15T08:06:37;99990.38;;;5.82;100.00
41515;BME280;27247;48.020;16.720;2022-11-15T08:10:47;99989.81;;;5.88;100.00
41515;BME280;27247;48.020;16.720;2022-11-15T08:14:57;99979.47;;;5.85;100.00
41515;BME280;27247;48.020;16.720;2022-11-15T08:19:08;99972.94;;;5.79;100.00
41515;BME280;27247;48.020;16.720;2022-11-15T08:23:18;99976.97;;;5.83;100.00
41515;BME280;27247;48.020;16.720;2022-11-15T08:27:28;99964.84;;;5.81;100.00
41515;BME280;27247;48.020;16.720;2022-11-15T08:31:39;99974.19;;;5.75;100.00
41515;BME280;27247;48.020;16.720;2022-11-15T08:35:49;99963.59;;;5.75;100.00
41515;BME280;27247;48.020;16.720;2022-11-15T08:40:00;99955.50;;;5.76;100.00
41515;BME280;27247;48.020;16.720;2022-11-15T08:44:10;99963.59;;;5.75;100.00
41515;BME280;27247;48.020;16.720;2022-11-15T08:48:21;99963.03;;;5.81;100.00
41515;BME280;27247;48.020;16.720;2022-11-15T08:52:31;99965.66;;;5.81;100.00
41515;BME280;27247;48.020;16.720;2022-11-15T08:56:42;99969.31;;;5.90;100.00
41515;BME280;27247;48.020;16.720;2022-11-15T09:00:52;99962.47;;;5.97;100.00
41515;BME280;27247;48.020;16.720;2022-11-15T09:05:02;99965.94;;;5.97;100.00
41515;BME280;27247;48.020;16.720;2022-11-15T09:09:13;99958.69;;;5.99;100.00
41515;BME280;27247;48.020;16.720;2022-11-15T09:13:23;99960.63;;;6.07;100.00
41515;BME280;27247;48.020;16.720;2022-11-15T09:17:33;99956.41;;;6.14;100.00
41515;BME280;27247;48.020;16.720;2022-11-15T09:21:44;99958.63;;;6.28;100.00
41515;BME280;27247;48.020;16.720;2022-11-15T09:26:02;99954.00;;;6.30;100.00
41515;BME280;27247;48.020;16.720;2022-11-15T09:30:13;99949.00;;;6.27;100.00
41515;BME280;27247;48.020;16.720;2022-11-15T09:34:23;99950.38;;;6.31;100.00
41515;BME280;27247;48.020;16.720;2022-11-15T09:38:34;99945.56;;;6.45;100.00
41515;BME280;27247;48.020;16.720;2022-11-15T09:52:06;99908.59;;;6.61;100.00
41515;BME280;27247;48.020;16.720;2022-11-15T09:56:22;99899.75;;;6.70;100.00
41515;BME280;27247;48.020;16.720;2022-11-15T10:00:40;99902.41;;;6.70;100.00
41515;BME280;27247;48.020;16.720;2022-11-15T10:04:53;99902.09;;;6.73;100.00
41515;BME280;27247;48.020;16.720;2022-11-15T10:13:25;99887.94;;;6.82;100.00
41515;BME280;27247;48.020;16.720;2022-11-15T10:18:25;99879.50;;;6.87;100.00
41515;BME280;27247;48.020;16.720;2022-11-15T10:26:29;99868.50;;;6.99;100.00
41515;BME280;27247;48.020;16.720;2022-11-15T10:30:51;99855.75;;;7.03;100.00
41515;BME280;27247;48.020;16.720;2022-11-15T10:35:23;99855.75;;;7.03;100.00
41515;BME280;27247;48.020;16.720;2022-11-15T10:39:33;99845.19;;;7.11;100.00
41515;BME280;27247;48.020;16.720;2022-11-15T10:43:44;99837.75;;;6.97;100.00
41515;BME280;27247;48.020;16.720;2022-11-15T10:48:22;99832.06;;;7.10;100.00
41515;BME280;27247;48.020;16.720;2022-11-15T10:52:35;99824.84;;;7.20;100.00
41515;BME280;27247;48.020;16.720;2022-11-15T10:56:50;99820.06;;;7.05;100.00
41515;BME280;27247;48.020;16.720;2022-11-15T11:01:16;99807.53;;;7.16;100.00
41515;BME280;27247;48.020;16.720;2022-11-15T11:09:43;99804.94;;;7.24;100.00
41515;BME280;27247;48.020;16.720;2022-11-15T11:13:53;99796.53;;;7.28;100.00
41515;BME280;27247;48.020;16.720;2022-11-15T11:18:07;99798.56;;;7.34;100.00
41515;BME280;27247;48.020;16.720;2022-11-15T11:22:44;99789.97;;;7.23;100.00
41515;BME280;27247;48.020;16.720;2022-11-15T11:27:19;99781.25;;;7.30;100.00
41515;BME280;27247;48.020;16.720;2022-11-15T11:31:40;99788.47;;;7.20;100.00
41515;BME280;27247;48.020;16.720;2022-11-15T11:36:09;99776.31;;;7.35;100.00
41515;BME280;27247;48.020;16.720;2022-11-15T11:40:37;99761.13;;;7.54;100.00
41515;BME280;27247;48.020;16.720;2022-11-15T11:44:57;99760.28;;;7.53;100.00
41515;BME280;27247;48.020;16.720;2022-11-15T11:49:25;99745.22;;;7.62;100.00
41515;BME280;27247;48.020;16.720;2022-11-15T11:53:49;99733.44;;;7.64;100.00
41515;BME280;27247;48.020;16.720;2022-11-15T11:58:09;99730.16;;;7.79;100.00
41515;BME280;27247;48.020;16.720;2022-11-15T12:02:31;99714.19;;;7.79;100.00
41515;BME280;27247;48.020;16.720;2022-11-15T12:06:50;99703.75;;;7.85;100.00
